Time;durP1;ratioP1;P1;durP2;ratioP2;P2;SDS_P1;SDS_P2;PMS_P1;PMS_P2;Temp;Humidity;BMP_temperature;BMP_pressure;BME280_temperature;BME280_humidity;BME280_pressure;Samples;Min_cycle;Max_cycle;Signal;HPM_P1;HPM_P2
2022/03/31 00:00:21;;;;;;;37.75;28.58;;;15.20;54.10;;;;;;5072177;28;20211;-56
2022/03/31 00:02:48;;;;;;;40.95;28.05;;;15.10;54.40;;;;;;5072511;28;20055;-56
2022/03/31 00:05:14;;;;;;;41.60;28.85;;;15.10;54.50;;;;;;5054929;28;20024;-62
2022/03/31 00:08:03;;;;;;;42.78;29.60;;;15.10;54.70;;;;;;5053778;28;20027;-56
2022/03/31 00:10:31;;;;;;;38.97;28.27;;;15.10;54.70;;;;;;5054092;28;20025;-55
2022/03/31 00:12:59;;;;;;;40.05;29.80;;;15.10;54.60;;;;;;5054382;28;20025;-54
2022/03/31 00:15:26;;;;;;;44.70;31.42;;;15.10;55.00;;;;;;5071669;28;20104;-60
2022/03/31 00:17:55;;;;;;;41.92;30.42;;;15.00;55.10;;;;;;5072124;28;20477;-61
2022/03/31 00:20:21;;;;;;;43.80;29.58;;;15.10;55.10;;;;;;5071096;28;20025;-58
2022/03/31 00:22:48;;;;;;;39.10;29.23;;;15.10;54.80;;;;;;5054342;28;20025;-58
2022/03/31 00:25:14;;;;;;;43.58;29.90;;;15.10;54.80;;;;;;5071845;28;20034;-63
2022/03/31 00:27:41;;;;;;;38.83;29.02;;;15.10;54.80;;;;;;5071292;28;20039;-54
2022/03/31 00:30:10;;;;;;;40.17;29.30;;;15.10;54.80;;;;;;5071866;28;20032;-59
2022/03/31 00:32:37;;;;;;;47.03;29.70;;;15.10;54.80;;;;;;5071331;28;20480;-57
2022/03/31 00:35:04;;;;;;;46.13;29.88;;;15.10;54.90;;;;;;5054083;28;20470;-59
2022/03/31 00:37:29;;;;;;;42.63;30.52;;;15.10;54.90;;;;;;5053904;28;20025;-58
2022/03/31 00:39:56;;;;;;;43.22;30.60;;;15.10;55.00;;;;;;5071946;28;20484;-56
2022/03/31 00:42:22;;;;;;;43.65;29.83;;;15.10;55.00;;;;;;5053416;28;20024;-57
2022/03/31 00:44:49;;;;;;;40.97;28.80;;;15.10;54.90;;;;;;5053979;28;20089;-58
2022/03/31 00:47:15;;;;;;;41.50;28.60;;;15.10;54.90;;;;;;5053841;28;20025;-62
2022/03/31 00:49:41;;;;;;;42.00;30.10;;;15.10;55.00;;;;;;5071985;28;20065;-58
2022/03/31 00:52:07;;;;;;;46.60;30.85;;;15.10;55.00;;;;;;5070414;28;20036;-59
2022/03/31 00:54:34;;;;;;;41.95;31.17;;;15.00;55.10;;;;;;5070724;28;20032;-57
2022/03/31 00:57:02;;;;;;;45.72;30.70;;;15.00;55.20;;;;;;5054041;28;20039;-58
2022/03/31 00:59:29;;;;;;;49.05;32.45;;;15.00;55.50;;;;;;5053297;28;20109;-56
2022/03/31 01:01:56;;;;;;;41.97;29.80;;;14.90;55.60;;;;;;5053748;28;20021;-54
2022/03/31 01:04:22;;;;;;;41.38;30.63;;;15.00;55.60;;;;;;5053200;28;20031;-57
2022/03/31 01:06:49;;;;;;;47.90;31.30;;;15.00;55.50;;;;;;5071586;28;20031;-54
2022/03/31 01:09:15;;;;;;;45.83;32.00;;;15.00;55.40;;;;;;5053280;28;20033;-62
2022/03/31 01:11:42;;;;;;;43.65;32.40;;;15.00;55.40;;;;;;5053836;28;20040;-58
2022/03/31 01:14:08;;;;;;;46.38;32.80;;;15.00;55.50;;;;;;5071497;28;20025;-55
2022/03/31 01:16:35;;;;;;;42.47;30.95;;;15.00;55.60;;;;;;5070539;28;20510;-57
2022/03/31 01:19:10;;;;;;;43.38;31.50;;;14.90;55.60;;;;;;5070800;28;20059;-58
2022/03/31 01:21:45;;;;;;;42.58;31.08;;;14.90;55.60;;;;;;5053007;28;20070;-58
2022/03/31 01:24:15;;;;;;;46.42;31.50;;;15.00;55.80;;;;;;5071316;28;20028;-59
2022/03/31 01:26:42;;;;;;;43.55;30.92;;;14.90;55.80;;;;;;5071132;28;20100;-57
2022/03/31 01:29:09;;;;;;;45.03;31.38;;;14.80;56.00;;;;;;5071799;28;20032;-57
2022/03/31 01:31:37;;;;;;;45.83;29.50;;;14.80;56.10;;;;;;5052851;28;20024;-57
2022/03/31 01:34:03;;;;;;;44.40;31.92;;;14.70;56.40;;;;;;5071314;28;20033;-58
2022/03/31 01:36:29;;;;;;;44.13;31.10;;;14.60;56.50;;;;;;5071219;28;20107;-56
2022/03/31 01:38:55;;;;;;;43.72;30.75;;;14.60;56.60;;;;;;5071253;28;20518;-60
2022/03/31 01:41:24;;;;;;;48.55;31.58;;;14.70;56.60;;;;;;5071566;28;20032;-52
2022/03/31 01:43:50;;;;;;;42.25;30.63;;;14.70;56.50;;;;;;5071891;28;20032;-56
2022/03/31 01:46:17;;;;;;;43.47;31.60;;;14.60;56.60;;;;;;5070824;28;20021;-57
2022/03/31 01:48:42;;;;;;;50.00;33.47;;;14.60;56.60;;;;;;5071979;28;20121;-54
2022/03/31 01:51:08;;;;;;;45.92;32.85;;;14.70;56.60;;;;;;5071149;28;20497;-56
2022/03/31 01:53:36;;;;;;;52.40;32.63;;;14.60;56.60;;;;;;5070994;28;20270;-57
2022/03/31 01:56:02;;;;;;;38.85;29.75;;;14.70;56.80;;;;;;5071543;28;20040;-57
2022/03/31 01:58:29;;;;;;;47.97;31.98;;;14.70;56.70;;;;;;5070651;28;20131;-57
2022/03/31 02:00:54;;;;;;;46.92;32.58;;;14.70;56.70;;;;;;5071256;28;20028;-58
2022/03/31 02:03:20;;;;;;;45.92;32.47;;;14.70;56.60;;;;;;5054353;28;20032;-58
2022/03/31 02:05:46;;;;;;;47.58;32.70;;;14.70;56.50;;;;;;5075383;28;20098;-51
2022/03/31 02:08:30;;;;;;;48.42;34.45;;;14.70;56.50;;;;;;5074943;28;20034;-58
2022/03/31 02:10:56;;;;;;;49.63;34.13;;;14.70;56.60;;;;;;5057239;28;20024;-56
2022/03/31 02:13:22;;;;;;;51.28;34.63;;;14.60;56.60;;;;;;5074470;28;20027;-53
2022/03/31 02:15:48;;;;;;;49.58;34.40;;;14.60;56.70;;;;;;5057154;28;20027;-51
2022/03/31 02:18:14;;;;;;;50.92;35.60;;;14.60;56.90;;;;;;5057097;28;20119;-54
2022/03/31 02:20:41;;;;;;;54.53;35.63;;;14.60;57.60;;;;;;5057013;28;20395;-55
2022/03/31 02:23:07;;;;;;;51.45;34.17;;;14.60;57.00;;;;;;5057014;28;20116;-55
2022/03/31 02:25:34;;;;;;;50.97;34.72;;;14.50;57.00;;;;;;5056251;28;20119;-60
2022/03/31 02:28:00;;;;;;;48.75;34.72;;;14.50;57.10;;;;;;5074801;28;20077;-59
2022/03/31 02:30:27;;;;;;;54.10;36.58;;;14.50;57.10;;;;;;5074402;28;20028;-56
2022/03/31 02:32:53;;;;;;;55.47;36.63;;;14.50;57.20;;;;;;5074914;28;20020;-57
2022/03/31 02:35:19;;;;;;;54.30;35.50;;;14.40;57.30;;;;;;5056285;28;20129;-57
2022/03/31 02:37:44;;;;;;;50.72;34.42;;;14.40;57.40;;;;;;5074944;28;20044;-58
2022/03/31 02:40:10;;;;;;;58.53;37.08;;;14.40;57.50;;;;;;5056619;28;20032;-58
2022/03/31 02:42:36;;;;;;;51.67;37.35;;;14.30;57.60;;;;;;5073880;28;20521;-56
2022/03/31 02:45:06;;;;;;;52.20;36.47;;;14.30;57.90;;;;;;5056587;28;20032;-59
2022/03/31 02:47:34;;;;;;;50.65;35.53;;;14.30;58.00;;;;;;5073753;28;20480;-56
2022/03/31 02:50:01;;;;;;;53.03;36.65;;;14.30;58.00;;;;;;5074622;28;20025;-56
2022/03/31 02:55:24;;;;;;;58.65;35.17;;;14.30;58.00;;;;;;5073657;28;20028;-57
2022/03/31 02:55:30;;;;;;;47.25;34.90;;;14.20;58.00;;;;;;5074125;28;20107;-49
2022/03/31 02:58:04;;;;;;;49.92;35.83;;;14.30;58.00;;;;;;5073992;28;20044;-57
2022/03/31 03:00:34;;;;;;;50.88;36.20;;;14.30;57.90;;;;;;5073900;28;20108;-56
2022/03/31 03:03:03;;;;;;;54.65;37.35;;;14.30;58.00;;;;;;5074263;28;20543;-56
2022/03/31 03:05:29;;;;;;;56.58;35.75;;;14.20;58.70;;;;;;5073789;28;20029;-57
2022/03/31 03:07:55;;;;;;;53.53;34.70;;;14.10;59.00;;;;;;5039704;28;20032;-55
2022/03/31 03:10:21;;;;;;;53.67;36.92;;;14.20;59.00;;;;;;5073390;28;20362;-57
2022/03/31 03:12:49;;;;;;;56.53;37.38;;;14.10;59.30;;;;;;5074133;28;20024;-57
2022/03/31 03:15:15;;;;;;;55.17;37.58;;;14.00;59.50;;;;;;5072436;28;20098;-57
2022/03/31 03:17:42;;;;;;;56.80;37.58;;;14.00;59.60;;;;;;5055544;28;20074;-56
2022/03/31 03:20:13;;;;;;;57.47;38.13;;;14.00;59.90;;;;;;5056120;28;20035;-56
2022/03/31 03:22:45;;;;;;;54.40;36.85;;;13.90;60.20;;;;;;5055476;28;20058;-55
2022/03/31 03:25:12;;;;;;;54.83;38.53;;;13.90;60.70;;;;;;5055660;28;20055;-58
2022/03/31 03:27:40;;;;;;;56.58;36.58;;;13.80;60.80;;;;;;5055444;28;20021;-57
2022/03/31 03:30:07;;;;;;;52.25;36.40;;;13.80;61.10;;;;;;5055765;28;20025;-53
2022/03/31 03:32:34;;;;;;;49.95;36.38;;;13.80;61.20;;;;;;5072868;28;20099;-57
2022/03/31 03:35:00;;;;;;;54.58;37.63;;;13.70;61.40;;;;;;5073719;28;20024;-57
2022/03/31 03:37:26;;;;;;;55.67;37.88;;;13.70;61.50;;;;;;5055149;28;20526;-58
2022/03/31 03:39:51;;;;;;;52.92;37.30;;;13.70;61.70;;;;;;5073455;28;20039;-58
2022/03/31 03:42:17;;;;;;;57.58;38.10;;;13.60;61.70;;;;;;5055049;28;20039;-60
2022/03/31 03:44:43;;;;;;;49.78;36.17;;;13.50;62.10;;;;;;5055559;28;20024;-57
2022/03/31 03:47:08;;;;;;;50.97;35.78;;;13.60;61.90;;;;;;5073294;28;20461;-55
2022/03/31 03:49:53;;;;;;;50.92;35.17;;;13.70;61.60;;;;;;5053689;28;20051;-57
2022/03/31 03:52:19;;;;;;;59.72;38.63;;;13.80;61.40;;;;;;5073468;28;20024;-53
2022/03/31 03:54:45;;;;;;;56.67;37.95;;;13.80;61.30;;;;;;5055384;28;20454;-60
2022/03/31 03:57:10;;;;;;;59.72;39.35;;;13.80;61.30;;;;;;5055698;28;20024;-53
2022/03/31 03:59:36;;;;;;;55.60;37.85;;;13.80;61.40;;;;;;5073148;28;20603;-57
2022/03/31 04:02:03;;;;;;;56.78;38.60;;;13.70;61.50;;;;;;5073402;28;20458;-58
2022/03/31 04:04:32;;;;;;;58.25;38.72;;;13.70;61.70;;;;;;5072754;28;20056;-56
2022/03/31 04:06:59;;;;;;;58.08;39.60;;;13.50;62.60;;;;;;5055652;28;20017;-58
2022/03/31 04:09:25;;;;;;;57.88;40.00;;;13.40;62.90;;;;;;5054922;28;20059;-56
2022/03/31 04:11:51;;;;;;;55.22;39.33;;;13.40;62.70;;;;;;5073367;28;20048;-55
2022/03/31 04:14:18;;;;;;;62.40;42.53;;;13.50;62.80;;;;;;5072995;28;20342;-63
2022/03/31 04:16:44;;;;;;;62.97;42.20;;;13.40;62.70;;;;;;5073340;28;20017;-58
2022/03/31 04:19:10;;;;;;;59.53;40.75;;;13.50;62.70;;;;;;5073238;28;20028;-58
2022/03/31 04:21:37;;;;;;;65.50;42.50;;;13.50;62.40;;;;;;5054386;28;20025;-58
2022/03/31 04:24:03;;;;;;;62.47;41.28;;;13.40;62.60;;;;;;5073303;28;20422;-58
2022/03/31 04:26:29;;;;;;;62.38;43.65;;;13.40;62.90;;;;;;5054451;28;20029;-56
2022/03/31 04:28:55;;;;;;;68.43;44.53;;;13.30;63.30;;;;;;5055335;28;20020;-57
2022/03/31 04:31:21;;;;;;;66.65;45.38;;;13.20;63.40;;;;;;5072643;28;20020;-58
2022/03/31 04:33:47;;;;;;;71.22;45.22;;;13.20;63.70;;;;;;5038199;28;20028;-58
2022/03/31 04:36:12;;;;;;;63.75;44.10;;;13.20;63.90;;;;;;5072650;28;20082;-56
2022/03/31 04:38:38;;;;;;;79.47;48.63;;;13.10;63.80;;;;;;5054380;28;20401;-57
2022/03/31 04:41:04;;;;;;;78.80;46.08;;;13.10;63.80;;;;;;5072736;28;20094;-55
2022/03/31 04:43:30;;;;;;;71.15;46.20;;;13.10;63.80;;;;;;5054312;28;20025;-57
2022/03/31 04:45:56;;;;;;;68.35;44.30;;;13.10;64.00;;;;;;5054907;28;20369;-58
2022/03/31 04:48:22;;;;;;;81.35;46.17;;;13.20;63.80;;;;;;5071911;28;20024;-59
2022/03/31 04:50:47;;;;;;;75.13;47.80;;;13.20;63.80;;;;;;5054259;28;20089;-56
2022/03/31 04:53:31;;;;;;;73.00;48.05;;;13.10;63.90;;;;;;5072551;28;20021;-57
2022/03/31 04:55:57;;;;;;;82.75;48.83;;;13.10;64.00;;;;;;5040325;28;20064;-56
2022/03/31 04:58:23;;;;;;;78.82;49.58;;;13.20;63.90;;;;;;5071284;28;20135;-55
2022/03/31 05:00:49;;;;;;;82.60;47.42;;;13.10;63.80;;;;;;5072667;28;20016;-57
2022/03/31 05:03:14;;;;;;;74.55;46.00;;;13.10;64.30;;;;;;5072193;28;20032;-59
2022/03/31 05:05:40;;;;;;;81.63;46.53;;;13.10;63.70;;;;;;5071924;28;20362;-56
2022/03/31 05:08:06;;;;;;;76.60;47.17;;;13.20;63.70;;;;;;5072548;28;20028;-58
2022/03/31 05:10:32;;;;;;;69.15;44.80;;;13.10;63.60;;;;;;5053822;28;20024;-58
2022/03/31 05:12:57;;;;;;;78.47;48.28;;;13.20;63.40;;;;;;5054015;28;20551;-57
2022/03/31 05:15:23;;;;;;;71.55;46.85;;;13.30;63.20;;;;;;5071245;28;20370;-60
2022/03/31 05:18:07;;;;;;;77.53;46.00;;;13.30;63.40;;;;;;5053134;28;20028;-56
2022/03/31 05:20:34;;;;;;;72.32;44.90;;;13.10;63.60;;;;;;5071574;28;20124;-61
2022/03/31 05:23:00;;;;;;;82.95;50.58;;;13.10;63.60;;;;;;5053935;28;20027;-55
2022/03/31 05:25:26;;;;;;;81.82;50.58;;;13.10;63.90;;;;;;5053487;28;20107;-57
2022/03/31 05:27:53;;;;;;;79.90;49.85;;;13.00;64.00;;;;;;5072241;28;20021;-51
2022/03/31 05:30:19;;;;;;;88.95;51.63;;;13.00;64.00;;;;;;5071800;28;20163;-57
2022/03/31 05:32:47;;;;;;;84.95;49.22;;;13.00;64.20;;;;;;5071397;28;20078;-55
2022/03/31 05:35:13;;;;;;;93.18;51.35;;;13.10;64.10;;;;;;5071579;28;20094;-57
2022/03/31 05:37:40;;;;;;;104.28;55.80;;;13.10;63.80;;;;;;5071809;28;20046;-58
2022/03/31 05:40:08;;;;;;;87.55;55.38;;;13.10;63.50;;;;;;5075541;28;20032;-60
2022/03/31 05:42:35;;;;;;;85.63;55.03;;;13.00;63.50;;;;;;5075365;28;20032;-58
2022/03/31 05:45:03;;;;;;;91.45;53.70;;;12.90;63.60;;;;;;5075442;28;20039;-57
2022/03/31 05:47:28;;;;;;;87.97;55.08;;;13.00;63.40;;;;;;5074940;28;20078;-63
2022/03/31 05:49:54;;;;;;;85.07;54.38;;;13.00;63.20;;;;;;5075610;28;20032;-56
2022/03/31 05:52:21;;;;;;;85.20;55.20;;;13.10;62.90;;;;;;5057894;28;20077;-55
2022/03/31 05:54:48;;;;;;;89.90;56.10;;;13.00;63.20;;;;;;5056855;28;20461;-59
2022/03/31 05:57:14;;;;;;;86.40;54.15;;;13.00;63.40;;;;;;5075519;28;20020;-56
2022/03/31 05:59:41;;;;;;;103.95;53.63;;;13.00;63.40;;;;;;5074551;28;20067;-56
2022/03/31 06:02:08;;;;;;;85.90;53.15;;;13.00;63.40;;;;;;5057169;28;20029;-58
2022/03/31 06:04:33;;;;;;;85.70;54.63;;;13.00;63.20;;;;;;5074470;28;20028;-56
2022/03/31 06:07:01;;;;;;;90.03;55.35;;;12.90;63.30;;;;;;5075105;28;20032;-56
2022/03/31 06:09:27;;;;;;;95.93;55.33;;;12.80;63.60;;;;;;5074786;28;20064;-62
2022/03/31 06:11:53;;;;;;;89.10;54.70;;;12.80;64.10;;;;;;5056710;28;20392;-57
2022/03/31 06:14:18;;;;;;;98.15;55.35;;;12.80;64.00;;;;;;5057139;28;20029;-58
2022/03/31 06:16:44;;;;;;;90.60;55.47;;;13.00;63.70;;;;;;5073645;28;20436;-60
2022/03/31 06:19:10;;;;;;;84.60;52.60;;;13.00;63.40;;;;;;5056771;28;20040;-57
2022/03/31 06:21:55;;;;;;;81.50;53.50;;;13.00;63.20;;;;;;5056300;28;20112;-55
2022/03/31 06:24:21;;;;;;;88.03;54.20;;;13.10;63.00;;;;;;5074820;28;20051;-57
2022/03/31 06:26:46;;;;;;;86.18;55.13;;;13.10;62.70;;;;;;5055453;28;20489;-57
2022/03/31 06:29:13;;;;;;;87.85;55.75;;;13.10;62.60;;;;;;5074591;28;20024;-58
2022/03/31 06:31:39;;;;;;;91.35;56.13;;;13.10;62.50;;;;;;5074601;28;20020;-57
2022/03/31 06:34:05;;;;;;;88.22;56.05;;;13.00;62.80;;;;;;5055919;28;20025;-57
2022/03/31 06:36:31;;;;;;;94.32;53.97;;;12.80;63.40;;;;;;5056139;28;20033;-60
2022/03/31 06:38:57;;;;;;;103.80;57.65;;;12.80;63.70;;;;;;5055957;28;20085;-53
2022/03/31 06:41:23;;;;;;;108.30;54.92;;;12.90;63.50;;;;;;5056764;28;20123;-55
2022/03/31 06:43:49;;;;;;;85.28;54.30;;;12.90;63.50;;;;;;5073489;28;20031;-60
2022/03/31 06:46:16;;;;;;;96.05;55.58;;;13.00;63.20;;;;;;5074323;28;20093;-56
2022/03/31 06:48:43;;;;;;;88.85;55.10;;;13.00;62.90;;;;;;5055732;28;20036;-56
2022/03/31 06:51:10;;;;;;;95.35;56.33;;;13.00;62.70;;;;;;5056437;28;20032;-58
2022/03/31 06:53:37;;;;;;;93.82;58.42;;;12.80;63.00;;;;;;5055495;28;20027;-56
2022/03/31 06:56:05;;;;;;;111.45;55.97;;;12.80;63.30;;;;;;5074645;28;20027;-57
2022/03/31 06:58:31;;;;;;;85.90;55.95;;;12.90;63.60;;;;;;5055756;28;20155;-62
2022/03/31 07:00:57;;;;;;;85.18;56.20;;;12.80;63.50;;;;;;5073532;28;20380;-57
2022/03/31 07:03:23;;;;;;;86.63;57.22;;;12.70;63.90;;;;;;5073905;28;20024;-58
2022/03/31 07:05:49;;;;;;;88.72;57.50;;;12.70;64.40;;;;;;5055607;28;20062;-57
2022/03/31 07:08:15;;;;;;;88.05;57.20;;;12.60;64.90;;;;;;5056232;28;20029;-58
2022/03/31 07:10:41;;;;;;;86.28;56.63;;;12.70;65.40;;;;;;5072869;28;20071;-55
2022/03/31 07:13:07;;;;;;;87.72;57.55;;;12.80;65.40;;;;;;5073988;28;20524;-58
2022/03/31 07:18:17;;;;;;;86.82;58.78;;;12.90;65.20;;;;;;5072938;28;20506;-59
2022/03/31 07:20:43;;;;;;;84.63;56.78;;;12.90;65.20;;;;;;5075171;28;20036;-59
2022/03/31 07:23:27;;;;;;;87.47;56.35;;;13.00;65.50;;;;;;5055934;28;20453;-60
2022/03/31 07:25:54;;;;;;;85.28;56.72;;;12.90;66.00;;;;;;5072653;28;20519;-59
2022/03/31 07:28:21;;;;;;;86.70;55.85;;;12.90;66.10;;;;;;5055641;28;20070;-61
2022/03/31 07:30:47;;;;;;;82.10;55.88;;;13.00;65.80;;;;;;5073032;28;20031;-60
2022/03/31 07:33:13;;;;;;;86.20;55.92;;;12.90;65.90;;;;;;5072673;28;20020;-59
2022/03/31 07:35:42;;;;;;;79.68;55.35;;;12.90;66.10;;;;;;5054956;28;20135;-56
2022/03/31 07:38:09;;;;;;;93.05;58.35;;;12.90;66.40;;;;;;5073488;28;20024;-57
2022/03/31 07:40:37;;;;;;;79.88;52.38;;;12.90;66.80;;;;;;5072856;28;20031;-62
2022/03/31 07:43:04;;;;;;;85.75;52.20;;;12.90;66.60;;;;;;5073446;28;20414;-55
2022/03/31 07:45:34;;;;;;;64.50;48.08;;;13.00;66.70;;;;;;5055688;28;20457;-57
2022/03/31 07:48:01;;;;;;;75.47;52.45;;;13.00;66.00;;;;;;5055550;28;20039;-54
2022/03/31 07:50:26;;;;;;;69.90;49.00;;;13.10;65.90;;;;;;5073446;28;20086;-56
2022/03/31 07:52:53;;;;;;;73.13;49.47;;;13.00;66.00;;;;;;5072443;28;20035;-55
2022/03/31 07:55:19;;;;;;;74.47;49.92;;;13.20;65.80;;;;;;5072289;28;20024;-56
2022/03/31 07:57:48;;;;;;;76.30;50.90;;;13.20;65.40;;;;;;5072591;28;20028;-55
2022/03/31 08:00:15;;;;;;;79.30;52.15;;;13.20;66.00;;;;;;5072910;28;20465;-56
2022/03/31 08:02:43;;;;;;;89.15;55.10;;;13.10;65.90;;;;;;5071841;28;20016;-56
2022/03/31 08:05:14;;;;;;;82.60;53.42;;;13.20;66.20;;;;;;5055158;28;20029;-58
2022/03/31 08:07:40;;;;;;;79.70;51.80;;;13.10;66.00;;;;;;5071862;28;20435;-54
2022/03/31 08:10:08;;;;;;;76.25;52.85;;;13.10;66.30;;;;;;5073048;28;20029;-60
2022/03/31 08:12:35;;;;;;;73.60;48.90;;;13.10;66.10;;;;;;5072806;28;20090;-61
2022/03/31 08:15:01;;;;;;;68.75;47.60;;;13.00;66.00;;;;;;5054757;28;20162;-58
2022/03/31 08:17:27;;;;;;;74.05;48.42;;;13.10;66.30;;;;;;5054688;28;20137;-56
2022/03/31 08:19:53;;;;;;;70.88;47.65;;;13.10;66.30;;;;;;5054232;28;20465;-62
2022/03/31 08:22:19;;;;;;;67.47;47.65;;;13.00;65.80;;;;;;5054835;28;20091;-58
2022/03/31 08:24:45;;;;;;;66.05;46.30;;;12.80;66.40;;;;;;5072238;28;20020;-60
2022/03/31 08:27:11;;;;;;;67.20;45.03;;;12.90;66.50;;;;;;5053789;28;20028;-55
2022/03/31 08:29:39;;;;;;;72.28;46.22;;;12.70;66.70;;;;;;5073314;28;20036;-58
2022/03/31 08:32:07;;;;;;;68.78;47.65;;;12.70;67.10;;;;;;5072519;28;20025;-61
2022/03/31 08:34:33;;;;;;;72.07;45.38;;;12.80;67.60;;;;;;5054411;28;20025;-57
2022/03/31 08:36:58;;;;;;;65.93;45.75;;;12.80;67.10;;;;;;5072081;28;20215;-53
2022/03/31 08:39:24;;;;;;;73.53;47.30;;;12.90;67.20;;;;;;5054833;28;20028;-59
2022/03/31 08:41:50;;;;;;;74.55;45.60;;;12.90;67.00;;;;;;5071840;28;20111;-60
2022/03/31 08:44:20;;;;;;;76.90;46.05;;;12.80;67.50;;;;;;5072232;28;20025;-52
2022/03/31 08:46:48;;;;;;;75.47;45.75;;;12.90;68.10;;;;;;5053408;28;20092;-55
2022/03/31 08:49:14;;;;;;;77.95;48.35;;;12.90;68.00;;;;;;5054295;28;20036;-54
2022/03/31 08:51:42;;;;;;;70.15;47.17;;;12.90;68.10;;;;;;5054440;28;20021;-63
2022/03/31 08:54:08;;;;;;;66.20;45.58;;;12.90;68.00;;;;;;5072118;28;20024;-57
2022/03/31 08:56:34;;;;;;;66.25;46.08;;;12.90;67.60;;;;;;5072220;28;20484;-59
2022/03/31 08:59:00;;;;;;;66.63;43.28;;;12.90;67.80;;;;;;5071544;28;20362;-56
2022/03/31 09:01:27;;;;;;;65.75;45.33;;;12.90;67.70;;;;;;5071715;28;20474;-59
2022/03/31 09:03:53;;;;;;;63.83;44.83;;;12.90;68.30;;;;;;5071086;28;20479;-55
2022/03/31 09:06:24;;;;;;;83.05;48.70;;;12.90;68.30;;;;;;5071706;28;20099;-58
2022/03/31 09:09:04;;;;;;;68.43;44.83;;;12.90;68.90;;;;;;5072135;28;20031;-58
2022/03/31 09:11:37;;;;;;;67.40;45.45;;;12.70;68.70;;;;;;5053532;28;20087;-61
2022/03/31 09:14:06;;;;;;;69.85;46.17;;;12.60;69.20;;;;;;5070516;28;20016;-56
2022/03/31 09:16:38;;;;;;;69.63;45.92;;;12.70;69.50;;;;;;5071351;28;20497;-64
2022/03/31 09:19:10;;;;;;;76.50;47.70;;;12.80;69.70;;;;;;5070982;28;20035;-61
2022/03/31 09:21:54;;;;;;;67.80;44.50;;;12.70;69.10;;;;;;5071712;28;20031;-60
2022/03/31 09:24:22;;;;;;;68.32;45.65;;;12.80;69.40;;;;;;5071799;28;20024;-60
2022/03/31 09:26:49;;;;;;;68.00;46.78;;;12.80;69.10;;;;;;5071366;28;20028;-61
2022/03/31 09:29:17;;;;;;;64.25;44.97;;;12.80;69.00;;;;;;5053015;28;20029;-62
2022/03/31 09:31:44;;;;;;;84.60;44.45;;;12.80;69.30;;;;;;5070187;28;20035;-58
2022/03/31 09:34:09;;;;;;;72.20;43.92;;;12.80;69.20;;;;;;5053650;28;20028;-54
2022/03/31 09:36:37;;;;;;;75.97;45.40;;;12.80;69.10;;;;;;5071362;28;20378;-57
2022/03/31 09:39:13;;;;;;;64.50;43.20;;;12.80;69.20;;;;;;5053001;28;20119;-58
2022/03/31 09:41:41;;;;;;;69.28;43.92;;;12.90;69.70;;;;;;5053745;28;20033;-59
2022/03/31 09:44:12;;;;;;;79.68;43.83;;;12.90;69.20;;;;;;5053089;28;20413;-55
2022/03/31 09:46:39;;;;;;;75.50;45.05;;;12.90;68.90;;;;;;5071560;28;20021;-53
2022/03/31 09:49:15;;;;;;;66.13;40.55;;;12.90;68.90;;;;;;5070496;28;20027;-58
2022/03/31 09:51:43;;;;;;;70.90;42.78;;;12.90;69.40;;;;;;5071340;28;20040;-60
2022/03/31 09:54:09;;;;;;;63.80;42.35;;;12.90;69.00;;;;;;5053001;28;20028;-57
2022/03/31 09:56:40;;;;;;;75.57;47.70;;;12.80;68.70;;;;;;5070964;28;20033;-55
2022/03/31 09:59:08;;;;;;;76.47;48.38;;;12.80;69.40;;;;;;5051916;28;20136;-54
2022/03/31 10:01:35;;;;;;;65.32;43.08;;;12.80;69.60;;;;;;5071312;28;20027;-54
2022/03/31 10:04:02;;;;;;;58.22;39.42;;;12.90;69.50;;;;;;5035974;28;20032;-59
2022/03/31 10:06:32;;;;;;;98.07;60.90;;;12.90;69.60;;;;;;5053255;28;20052;-59
2022/03/31 10:08:58;;;;;;;64.53;42.70;;;12.80;69.90;;;;;;5052524;28;20418;-58
2022/03/31 10:11:28;;;;;;;65.75;43.95;;;12.80;70.30;;;;;;5070884;28;20029;-55
2022/03/31 10:14:12;;;;;;;68.55;43.45;;;12.80;70.30;;;;;;5070452;28;20056;-56
2022/03/31 10:16:44;;;;;;;67.63;47.30;;;12.80;71.00;;;;;;5052609;28;20024;-57
2022/03/31 10:19:09;;;;;;;62.47;41.67;;;12.70;70.30;;;;;;5070045;28;20033;-58
2022/03/31 10:21:35;;;;;;;53.55;38.38;;;12.70;70.30;;;;;;5069236;28;20074;-56
2022/03/31 10:26:58;;;;;;;136.68;102.82;;;12.70;70.50;;;;;;5074252;28;20032;-63
2022/03/31 10:29:36;;;;;;;66.97;49.08;;;12.80;69.60;;;;;;5056173;28;20024;-59
2022/03/31 10:32:14;;;;;;;48.35;35.25;;;12.80;69.30;;;;;;5055197;28;20027;-57
2022/03/31 10:34:44;;;;;;;55.28;37.33;;;12.90;69.00;;;;;;5073804;28;20111;-60
2022/03/31 10:37:11;;;;;;;51.30;35.47;;;13.00;69.00;;;;;;5056072;28;20035;-54
2022/03/31 10:39:37;;;;;;;54.47;38.28;;;12.90;68.70;;;;;;5074015;28;20051;-66
2022/03/31 10:42:07;;;;;;;47.72;35.28;;;12.80;69.20;;;;;;5074033;28;20031;-54
2022/03/31 10:44:33;;;;;;;47.20;32.13;;;12.80;69.50;;;;;;5074365;28;20024;-54
2022/03/31 10:47:04;;;;;;;47.13;33.50;;;13.00;69.40;;;;;;5074186;28;20051;-52
2022/03/31 10:49:30;;;;;;;51.30;36.08;;;13.10;69.20;;;;;;5074604;28;20071;-52
2022/03/31 10:51:56;;;;;;;46.50;32.88;;;13.20;68.40;;;;;;5074053;28;20029;-51
2022/03/31 10:54:33;;;;;;;48.72;33.45;;;13.30;68.60;;;;;;5056566;28;20475;-49
2022/03/31 10:57:15;;;;;;;51.00;35.83;;;13.40;68.20;;;;;;5073442;28;20106;-53
2022/03/31 10:59:43;;;;;;;55.08;36.20;;;13.40;68.00;;;;;;5057525;28;20413;-55
2022/03/31 11:02:10;;;;;;;53.00;31.33;;;13.40;68.00;;;;;;5055834;28;20203;-51
2022/03/31 11:04:44;;;;;;;47.17;32.40;;;13.50;67.60;;;;;;5056501;28;20036;-50
2022/03/31 11:07:17;;;;;;;53.28;33.45;;;13.50;67.50;;;;;;5074094;28;20102;-52
2022/03/31 11:09:43;;;;;;;;;;;13.60;67.10;;;;;;5075022;28;20456;-54
2022/03/31 11:12:26;;;;;;;64.20;36.42;;;13.70;67.10;;;;;;5073680;28;19904;-54
2022/03/31 11:15:00;;;;;;;53.08;30.83;;;13.70;67.00;;;;;;5073674;28;20028;-52
2022/03/31 11:17:29;;;;;;;47.38;31.95;;;13.80;67.00;;;;;;5073811;28;20442;-54
2022/03/31 11:20:14;;;;;;;48.35;30.92;;;13.70;67.00;;;;;;5039717;28;20059;-54
2022/03/31 11:22:47;;;;;;;59.13;39.15;;;13.70;66.60;;;;;;5055946;28;20025;-49
2022/03/31 11:25:13;;;;;;;46.00;29.05;;;13.50;66.60;;;;;;5073417;28;20020;-52
2022/03/31 11:27:41;;;;;;;53.28;30.35;;;13.60;67.40;;;;;;5073955;28;20056;-51
2022/03/31 11:30:18;;;;;;;53.63;32.67;;;13.60;66.80;;;;;;5073357;28;20044;-53
2022/03/31 11:32:45;;;;;;;46.08;30.75;;;13.40;67.20;;;;;;5073584;28;20055;-52
2022/03/31 11:35:20;;;;;;;40.83;30.23;;;13.30;67.80;;;;;;5072721;28;20024;-50
2022/03/31 11:37:48;;;;;;;51.40;31.20;;;13.20;68.10;;;;;;5074053;28;20534;-52
2022/03/31 11:40:24;;;;;;;46.92;30.13;;;13.20;68.40;;;;;;5073098;28;20029;-50
2022/03/31 11:42:52;;;;;;;48.03;30.02;;;13.20;68.60;;;;;;5073767;28;20186;-51
2022/03/31 11:45:28;;;;;;;59.88;30.40;;;13.30;68.40;;;;;;5055733;28;20028;-52
2022/03/31 11:48:03;;;;;;;42.83;27.52;;;13.20;68.90;;;;;;5072825;28;20028;-58
2022/03/31 11:50:30;;;;;;;61.15;30.58;;;13.20;68.90;;;;;;5073363;28;20025;-54
2022/03/31 11:52:56;;;;;;;50.92;30.30;;;13.30;68.50;;;;;;5055190;28;20029;-54
2022/03/31 11:55:22;;;;;;;51.28;28.98;;;13.30;68.20;;;;;;5072373;28;20075;-55
2022/03/31 11:57:53;;;;;;;47.88;30.35;;;13.10;68.50;;;;;;5055383;28;20028;-51
2022/03/31 12:00:20;;;;;;;45.55;28.20;;;12.90;69.20;;;;;;5073210;28;20041;-49
2022/03/31 12:03:06;;;;;;;48.20;28.23;;;13.00;69.40;;;;;;5055000;28;20033;-51
2022/03/31 12:05:32;;;;;;;51.08;28.25;;;13.00;69.70;;;;;;5072842;28;20024;-53
2022/03/31 12:08:00;;;;;;;52.70;28.40;;;13.10;69.70;;;;;;5054514;28;20036;-53
2022/03/31 12:10:29;;;;;;;41.40;27.90;;;13.10;69.30;;;;;;5054969;28;20124;-54
2022/03/31 12:12:56;;;;;;;59.08;29.67;;;13.20;69.70;;;;;;5072470;28;20021;-50
2022/03/31 12:15:26;;;;;;;45.38;28.88;;;13.30;69.20;;;;;;5072963;28;20397;-51
2022/03/31 12:17:56;;;;;;;49.05;27.88;;;13.30;69.10;;;;;;5073455;28;20032;-54
2022/03/31 12:20:22;;;;;;;47.35;30.30;;;13.20;69.00;;;;;;5054480;28;20036;-52
2022/03/31 12:22:49;;;;;;;39.95;28.23;;;13.10;69.40;;;;;;5054519;28;20035;-53
2022/03/31 12:25:33;;;;;;;51.60;28.70;;;13.00;69.60;;;;;;5072273;28;20052;-50
2022/03/31 12:28:01;;;;;;;;;;;13.00;69.80;;;;;;5072896;28;20046;-51
2022/03/31 12:30:57;;;;;;;62.45;29.98;;;12.90;69.70;;;;;;5072323;28;19950;-51
2022/03/31 12:33:23;;;;;;;58.95;28.20;;;12.80;70.00;;;;;;5071998;28;20090;-54
2022/03/31 12:35:52;;;;;;;45.53;27.73;;;12.90;70.30;;;;;;5054603;28;20028;-53
2022/03/31 12:38:18;;;;;;;50.20;29.75;;;12.80;70.60;;;;;;5053610;28;20031;-51